Time;durP1;ratioP1;P1;durP2;ratioP2;P2;SDS_P1;SDS_P2;PMS_P1;PMS_P2;Temp;Humidity;BMP_temperature;BMP_pressure;BME280_temperature;BME280_humidity;BME280_pressure;Samples;Min_cycle;Max_cycle;Signal;HPM_P1;HPM_P2
2024/02/09 00:00:31;;;;;;;8.02;6.38;;;;;;;3.40;100.00;149523.69;10524495;28;20036;-75
2024/02/09 00:05:32;;;;;;;7.38;6.68;;;;;;;3.44;100.00;149533.97;10543652;28;20690;-77
2024/02/09 00:10:36;;;;;;;8.07;7.22;;;;;;;3.21;100.00;149476.19;10544033;28;20085;-75
2024/02/09 00:15:39;;;;;;;7.40;6.70;;;;;;;3.32;100.00;149503.19;10542887;28;20102;-75
2024/02/09 00:20:45;;;;;;;8.90;7.88;;;;;;;3.27;100.00;149491.59;10543115;28;20044;-75
2024/02/09 00:25:49;;;;;;;7.33;6.53;;;;;;;3.79;100.00;149621.28;10542522;28;20448;-75
2024/02/09 00:30:50;;;;;;;8.40;7.60;;;;;;;3.70;100.00;149598.19;10543667;28;20352;-75
2024/02/09 00:35:53;;;;;;;7.03;6.32;;;;;;;3.38;100.00;149518.56;10542551;28;20044;-75
2024/02/09 00:40:55;;;;;;;7.90;7.07;;;;;;;3.34;100.00;149508.28;10542477;28;20060;-75
2024/02/09 00:45:56;;;;;;;8.10;6.80;;;;;;;3.29;100.00;149495.47;10542039;28;20086;-75
2024/02/09 00:50:58;;;;;;;7.57;6.78;;;;;;;3.31;100.00;149500.56;10542660;28;20048;-75
2024/02/09 00:56:00;;;;;;;7.25;6.13;;;;;;;3.41;100.00;149524.97;10542339;28;20032;-75
2024/02/09 01:01:03;;;;;;;7.75;6.90;;;;;;;3.34;100.00;149508.28;10542219;28;20044;-74
2024/02/09 01:06:06;;;;;;;7.95;7.15;;;;;;;3.35;100.00;149509.56;10524949;28;20040;-76
2024/02/09 01:11:09;;;;;;;6.90;6.20;;;;;;;3.39;100.00;149521.13;10542084;28;20040;-76
2024/02/09 02:46:51;;;;;;;9.70;8.70;;;;;;;3.62;100.00;149577.63;10528241;28;20098;-75
2024/02/09 03:07:56;;;;;;;7.90;7.10;;;;;;;4.01;100.00;149676.50;10545715;28;20116;-75
2024/02/09 03:13:01;;;;;;;7.25;6.57;;;;;;;3.75;100.00;149612.28;10545500;28;20036;-75
2024/02/09 03:18:04;;;;;;;6.70;6.10;;;;;;;4.05;100.00;149688.06;10544853;28;20416;-75
2024/02/09 03:23:06;;;;;;;7.22;6.32;;;;;;;3.82;100.00;149627.72;10545527;28;20078;-76
2024/02/09 03:28:08;;;;;;;6.50;5.90;;;;;;;3.88;100.00;149644.41;10526616;28;20044;-75
2024/02/09 03:33:12;;;;;;;7.88;7.07;;;;;;;4.16;100.00;149713.75;10545437;28;20131;-75
2024/02/09 03:38:14;;;;;;;7.00;6.13;;;;;;;3.80;100.00;149623.84;10543554;28;20043;-75
2024/02/09 03:43:16;;;;;;;7.65;6.82;;;;;;;3.87;100.00;149640.56;10543690;28;20036;-74
2024/02/09 03:48:18;;;;;;;7.18;6.47;;;;;;;3.94;100.00;149659.84;10544169;28;20058;-74
2024/02/09 03:53:20;;;;;;;7.07;6.40;;;;;;;3.74;100.00;149608.44;10543964;28;20071;-75
2024/02/09 03:58:22;;;;;;;8.65;7.70;;;;;;;3.89;100.00;149646.97;10543914;28;20059;-74
2024/02/09 04:03:24;;;;;;;6.80;6.20;;;;;;;3.85;100.00;149635.41;10542906;28;20039;-75
2024/02/09 04:08:26;;;;;;;8.10;7.30;;;;;;;3.83;100.00;149630.28;10544560;28;20039;-74
2024/02/09 04:13:27;;;;;;;7.35;6.57;;;;;;;3.92;100.00;149654.69;10525886;28;20416;-75
2024/02/09 04:18:29;;;;;;;7.93;7.13;;;;;;;4.28;100.00;149745.88;10542096;28;20040;-74
2024/02/09 04:23:31;;;;;;;8.05;7.28;;;;;;;4.15;100.00;149711.19;10542903;28;20131;-75
2024/02/09 04:28:33;;;;;;;7.70;6.47;;;;;;;4.28;100.00;149745.88;10542577;28;20040;-76
2024/02/09 04:33:36;;;;;;;10.60;6.70;;;;;;;4.25;100.00;149738.19;10542565;28;20052;-75
2024/02/09 04:38:40;;;;;;;7.85;6.10;;;;;;;4.26;100.00;149740.75;10543704;28;20519;-74
2024/02/09 04:43:43;;;;;;;7.35;6.65;;;;;;;4.50;100.00;149801.13;10524756;28;20130;-74
2024/02/09 04:48:45;;;;;;;9.88;6.50;;;;;;;4.33;100.00;149757.44;10524451;28;20079;-75
2024/02/09 04:53:47;;;;;;;8.13;6.22;;;;;;;4.41;100.00;149778.00;10541644;28;20040;-75
2024/02/09 04:58:51;;;;;;;7.25;6.03;;;;;;;5.02;100.00;149930.97;10541714;28;20036;-75
2024/02/09 05:04:06;;;;;;;8.52;5.55;;;;;;;5.13;100.00;149959.22;10548302;28;20479;-74
2024/02/09 05:09:14;;;;;;;9.95;5.72;;;;;;;5.36;100.00;150017.13;10510327;28;20728;-75
2024/02/09 05:14:19;;;;;;;13.60;6.22;;;;;;;5.26;100.00;149992.63;10541664;28;20040;-75
2024/02/09 05:19:21;;;;;;;10.82;6.20;;;;;;;5.52;100.00;150056.94;10541428;28;20094;-75
2024/02/09 05:24:25;;;;;;;10.43;6.30;;;;;;;5.50;100.00;150051.84;10523445;28;20431;-75
2024/02/09 05:29:27;;;;;;;8.98;5.88;;;;;;;5.60;100.00;150076.25;10544085;28;20040;-75
2024/02/09 05:34:28;;;;;;;10.45;6.38;;;;;;;5.59;100.00;150073.69;10549606;28;20457;-74
2024/02/09 05:39:30;;;;;;;11.02;6.20;;;;;;;5.72;100.00;150107.13;10530562;28;20040;-74
2024/02/09 05:44:33;;;;;;;12.82;6.43;;;;;;;5.50;100.00;150051.84;10530612;28;20043;-74
2024/02/09 05:49:37;;;;;;;15.25;6.03;;;;;;;5.57;100.00;150069.81;10549241;28;20043;-75
2024/02/09 05:54:40;;;;;;;11.68;6.50;;;;;;;5.40;100.00;150026.06;10530062;28;20048;-75
2024/02/09 05:59:43;;;;;;;6.28;5.53;;;;;;;5.55;100.00;150064.69;10549492;28;20111;-74
2024/02/09 06:04:45;;;;;;;11.05;6.38;;;;;;;5.57;100.00;150071.09;10549083;28;20047;-75
2024/02/09 06:09:47;;;;;;;7.85;6.00;;;;;;;5.71;100.00;150104.53;10530192;28;20047;-74
2024/02/09 06:14:50;;;;;;;10.70;5.72;;;;;;;5.42;100.00;150032.53;10548188;28;20093;-75
2024/02/09 06:19:55;;;;;;;13.57;5.75;;;;;;;5.74;100.00;150112.25;10547995;28;20500;-75
2024/02/09 06:24:57;;;;;;;10.45;6.43;;;;;;;5.92;100.00;150158.63;10528912;28;20518;-74
2024/02/09 06:30:00;;;;;;;8.90;6.70;;;;;;;5.88;100.00;150147.00;10546908;28;20044;-75
2024/02/09 06:35:01;;;;;;;10.77;5.72;;;;;;;5.84;100.00;150137.97;10530659;28;20411;-76
2024/02/09 06:40:08;;;;;;;7.15;6.20;;;;;;;5.91;100.00;150154.72;10546432;28;20047;-75
2024/02/09 06:45:14;;;;;;;10.95;6.18;;;;;;;6.00;100.00;150179.22;10547893;28;20040;-75
2024/02/09 06:50:20;;;;;;;9.33;5.87;;;;;;;6.01;100.00;150180.47;10547863;28;20091;-75
2024/02/09 06:55:22;;;;;;;13.07;6.55;;;;;;;5.99;100.00;150176.66;10547984;28;20036;-77
2024/02/09 07:00:25;;;;;;;11.73;6.13;;;;;;;5.63;100.00;150084.00;10546506;28;20558;-75
2024/02/09 07:05:29;;;;;;;8.35;6.72;;;;;;;5.69;100.00;150099.41;10547195;28;20047;-75
2024/02/09 07:10:31;;;;;;;12.57;6.85;;;;;;;5.77;100.00;150121.28;10546556;28;20036;-75
2024/02/09 07:15:33;;;;;;;7.63;3.70;;;;;;;6.28;100.00;150248.69;10546156;28;20047;-76
2024/02/09 07:20:35;;;;;;;7.30;3.40;;;;;;;7.40;100.00;150530.66;10547460;28;20047;-76
2024/02/09 07:25:37;;;;;;;7.70;4.38;;;;;;;7.91;100.00;150660.75;10545853;28;20450;-77
2024/02/09 07:30:39;;;;;;;7.03;3.83;;;;;;;7.90;100.00;150658.19;10526296;28;20044;-75
2024/02/09 07:35:45;;;;;;;4.80;3.17;;;;;;;8.26;100.00;150749.66;10526888;28;20114;-75
2024/02/09 07:40:47;;;;;;;6.70;2.93;;;;;;;8.25;100.00;150747.09;10544654;28;20113;-76
2024/02/09 07:45:49;;;;;;;6.70;3.65;;;;;;;8.28;100.00;150754.84;10544568;28;20040;-76
2024/02/09 07:50:52;;;;;;;5.05;2.40;;;;;;;8.26;100.00;150748.38;10543934;28;20039;-76
2024/02/09 07:55:57;;;;;;;4.78;2.42;;;;;;;8.45;100.00;150797.38;10543426;28;20043;-75
2024/02/09 08:00:59;;;;;;;5.30;1.60;;;;;;;8.39;100.00;150781.94;10525837;28;20044;-75
2024/02/09 08:06:02;;;;;;;3.40;1.92;;;;;;;8.50;100.00;150810.31;10544002;28;20444;-75
2024/02/09 08:11:03;;;;;;;3.55;2.15;;;;;;;8.62;100.00;150839.94;10543312;28;20506;-77
2024/02/09 08:16:05;;;;;;;3.47;1.60;;;;;;;8.86;100.00;150899.28;10543053;28;20068;-75
2024/02/09 08:21:07;;;;;;;2.65;1.50;;;;;;;8.62;100.00;150839.94;10543783;28;20403;-75
2024/02/09 08:26:10;;;;;;;3.60;1.90;;;;;;;8.74;100.00;150869.63;10542977;28;20062;-75
2024/02/09 08:31:16;;;;;;;2.13;1.20;;;;;;;8.70;100.00;150859.28;10527300;28;20036;-75
2024/02/09 08:36:23;;;;;;;2.27;1.70;;;;;;;8.76;100.00;150876.03;10542971;28;20157;-78
2024/02/09 08:41:25;;;;;;;3.05;1.40;;;;;;;8.99;100.00;150934.09;10543058;28;20080;-76
2024/02/09 08:46:27;;;;;;;2.55;1.80;;;;;;;9.01;100.00;150937.94;10543632;28;20047;-76
2024/02/09 08:51:29;;;;;;;2.50;1.40;;;;;;;9.10;100.00;150962.44;10542997;28;20040;-76
2024/02/09 08:56:31;;;;;;;1.17;1.00;;;;;;;9.05;100.00;150949.56;10543572;28;20496;-76
2024/02/09 09:01:34;;;;;;;2.25;1.08;;;;;;;8.97;100.00;150928.91;10542666;28;20489;-76
2024/02/09 09:06:37;;;;;;;2.17;1.20;;;;;;;8.99;100.00;150932.81;10550134;28;20102;-77
2024/02/09 09:11:39;;;;;;;2.08;1.00;;;;;;;9.09;100.00;150959.88;10537249;28;20072;-78
2024/02/09 09:16:40;;;;;;;2.20;1.70;;;;;;;9.02;100.00;150940.53;10553782;28;20116;-76
2024/02/09 09:21:42;;;;;;;1.98;1.30;;;;;;;9.21;100.00;150988.22;10552824;28;20108;-75
2024/02/09 09:26:44;;;;;;;1.63;1.00;;;;;;;8.99;100.00;150932.81;10550268;28;20086;-77
2024/02/09 09:31:48;;;;;;;2.15;1.20;;;;;;;9.00;100.00;150936.66;10555463;28;20146;-78
2024/02/09 09:36:50;;;;;;;1.77;1.08;;;;;;;9.08;100.00;150957.31;10556490;28;20048;-77
2024/02/09 09:41:53;;;;;;;1.52;0.98;;;;;;;9.20;100.00;150985.66;10551265;28;20040;-75
2024/02/09 09:46:58;;;;;;;1.65;1.10;;;;;;;9.37;100.00;151028.22;10551124;28;20074;-77
2024/02/09 09:51:59;;;;;;;2.45;1.20;;;;;;;9.60;100.00;151088.84;10550834;28;20048;-76
2024/02/09 09:57:04;;;;;;;1.08;0.80;;;;;;;9.62;100.00;151091.47;10549981;28;20035;-76
2024/02/09 10:02:07;;;;;;;1.15;0.80;;;;;;;9.40;100.00;151037.28;10580590;28;20048;-76
2024/02/09 10:07:09;;;;;;;1.73;1.08;;;;;;;9.43;100.00;151043.69;10589203;28;20066;-76
2024/02/09 10:12:13;;;;;;;2.03;0.82;;;;;;;9.65;100.00;151099.19;10590959;28;20032;-77
2024/02/09 10:17:15;;;;;;;1.42;0.90;;;;;;;9.75;100.00;151126.31;10590925;28;20557;-76
2024/02/09 10:22:18;;;;;;;0.77;0.60;;;;;;;9.78;100.00;151134.06;10560623;28;20512;-76
2024/02/09 10:27:28;;;;;;;2.25;1.00;;;;;;;9.64;100.00;151096.59;10548521;28;20047;-77
2024/02/09 10:32:32;;;;;;;1.67;0.90;;;;;;;9.50;100.00;151063.06;10546967;28;20403;-76
2024/02/09 10:37:34;;;;;;;1.63;1.00;;;;;;;9.49;100.00;151060.50;10548411;28;20516;-77
2024/02/09 10:42:38;;;;;;;2.30;1.02;;;;;;;9.29;100.00;151010.16;10530803;28;20043;-78
2024/02/09 10:47:40;;;;;;;1.00;0.90;;;;;;;9.43;100.00;151043.69;10548268;28;20460;-76
2024/02/09 10:52:50;;;;;;;1.52;0.63;;;;;;;9.73;100.00;151119.81;10528620;28;20174;-76
2024/02/09 10:57:53;;;;;;;0.98;0.80;;;;;;;10.24;100.00;151250.25;10547326;28;20040;-77
2024/02/09 11:02:55;;;;;;;1.67;1.10;;;;;;;10.79;100.00;151389.66;10529032;28;20496;-77
2024/02/09 11:07:58;;;;;;;0.70;0.60;;;;;;;10.99;100.00;151440.06;10546608;28;20040;-77
2024/02/09 11:13:00;;;;;;;2.30;1.52;;;;;;;11.06;100.00;151456.81;10547891;28;20114;-76
2024/02/09 11:18:02;;;;;;;4.70;1.88;;;;;;;10.86;100.00;151406.47;10528498;28;20052;-77
2024/02/09 11:23:05;;;;;;;5.00;2.13;;;;;;;10.84;100.00;151402.56;10547317;28;20040;-78
2024/02/09 11:28:07;;;;;;;2.47;1.60;;;;;;;11.23;100.00;151499.47;10546077;28;20043;-77
2024/02/09 11:33:11;;;;;;;4.30;2.50;;;;;;;11.16;100.00;151482.69;10546799;28;20044;-77
2024/02/09 11:38:14;;;;;;;3.47;1.92;;;;;;;11.24;100.00;151503.31;10545373;28;20082;-77
2024/02/09 11:43:16;;;;;;;2.92;2.15;;;;;;;11.03;100.00;151450.41;10527156;28;20499;-77
2024/02/09 11:48:18;;;;;;;3.72;2.22;;;;;;;11.17;100.00;151483.97;10545628;28;20114;-77
2024/02/09 11:53:20;;;;;;;2.28;1.20;;;;;;;11.37;100.00;151535.63;10546963;28;20428;-77
2024/02/09 11:58:22;;;;;;;0.93;0.50;;;;;;;11.76;100.00;151635.13;10547329;28;20094;-76
2024/02/09 12:03:24;;;;;;;1.15;0.40;;;;;;;12.06;100.00;151711.44;10530047;28;20051;-76
2024/02/09 12:08:26;;;;;;;0.55;0.40;;;;;;;12.33;100.00;151778.66;10547600;28;20036;-76
2024/02/09 12:13:28;;;;;;;1.38;0.43;;;;;;;12.16;100.00;151734.69;10547873;28;20143;-76
2024/02/09 12:18:30;;;;;;;1.17;0.50;;;;;;;12.23;100.00;151752.81;10547548;28;20032;-76
2024/02/09 12:23:34;;;;;;;0.35;0.30;;;;;;;12.35;100.00;151785.16;10549239;28;20051;-75
2024/02/09 12:28:35;;;;;;;1.58;0.50;;;;;;;12.45;100.00;151809.69;10545872;28;20063;-76
2024/02/09 12:33:48;;;;;;;0.68;0.40;;;;;;;12.42;100.00;151801.94;10545739;28;20053;-76
2024/02/09 12:39:05;;;;;;;1.70;0.60;;;;;;;12.67;96.48;151865.31;10544152;28;20531;-76
2024/02/09 12:44:08;;;;;;;;;;;;;;;12.79;97.67;151896.34;10542740;28;20047;-75
2024/02/09 12:49:13;;;;;;;1.63;0.50;;;;;;;12.85;94.08;151910.56;10525463;28;19924;-76
2024/02/09 12:54:15;;;;;;;2.05;0.50;;;;;;;12.88;93.63;151918.28;10545039;28;20461;-76
2024/02/09 12:59:17;;;;;;;1.38;0.40;;;;;;;12.79;96.22;151895.00;10544981;28;20036;-76
2024/02/09 13:04:19;;;;;;;0.68;0.50;;;;;;;12.68;100.00;151866.59;10545143;28;20040;-75
2024/02/09 13:09:21;;;;;;;0.82;0.60;;;;;;;12.78;95.66;151892.44;10545215;28;20063;-75
2024/02/09 13:14:23;;;;;;;1.02;0.63;;;;;;;12.85;92.87;151911.84;10528188;28;20176;-76
2024/02/09 13:19:25;;;;;;;2.20;0.70;;;;;;;12.96;91.29;151939.00;10526121;28;20043;-74
2024/02/09 13:24:28;;;;;;;3.45;0.85;;;;;;;13.05;89.18;151962.28;10543741;28;20044;-75
2024/02/09 13:29:31;;;;;;;0.93;0.73;;;;;;;13.14;87.98;151985.56;10525426;28;20044;-76
2024/02/09 13:34:33;;;;;;;1.75;1.35;;;;;;;13.09;89.78;151972.63;10544052;28;20044;-76
2024/02/09 13:39:35;;;;;;;3.03;2.03;;;;;;;13.14;86.71;151984.28;10542952;28;20035;-76
2024/02/09 13:44:37;;;;;;;1.85;0.65;;;;;;;13.25;85.30;152011.50;10543409;28;20406;-76
2024/02/09 13:49:39;;;;;;;0.55;0.50;;;;;;;13.36;84.58;152039.94;10545330;28;20032;-75
2024/02/09 13:54:41;;;;;;;6.00;1.50;;;;;;;13.24;87.50;152008.94;10532681;28;20078;-74
2024/02/09 13:59:43;;;;;;;0.57;0.55;;;;;;;13.41;86.12;152051.59;10552579;28;20542;-75
2024/02/09 14:04:48;;;;;;;2.42;0.90;;;;;;;13.23;84.80;152006.31;10536404;28;20056;-75
2024/02/09 14:09:50;;;;;;;1.13;1.02;;;;;;;13.29;85.14;152021.88;10593333;28;20042;-77
2024/02/09 14:14:52;;;;;;;0.77;0.63;;;;;;;13.11;87.15;151976.53;10571875;28;20067;-76
2024/02/09 14:19:54;;;;;;;1.27;0.57;;;;;;;13.20;84.35;151999.81;10573520;28;20048;-76
2024/02/09 14:24:59;;;;;;;2.45;0.95;;;;;;;12.89;89.97;151920.91;10592115;28;20122;-75
2024/02/09 14:30:01;;;;;;;0.80;0.60;;;;;;;12.98;87.52;151944.19;10589530;28;20036;-77
2024/02/09 14:35:04;;;;;;;2.15;0.93;;;;;;;12.81;89.02;151901.50;10590371;28;20070;-76
2024/02/09 14:40:07;;;;;;;1.45;0.80;;;;;;;12.59;91.23;151844.59;10590055;28;20069;-75
2024/02/09 14:45:10;;;;;;;1.08;0.93;;;;;;;12.62;90.78;151853.66;10573908;28;20089;-76
2024/02/09 14:50:12;;;;;;;2.53;0.80;;;;;;;12.54;92.73;151831.69;10590598;28;20082;-76
2024/02/09 14:55:14;;;;;;;6.90;4.07;;;;;;;12.30;95.28;151770.88;10591271;28;20110;-76
2024/02/09 15:00:17;;;;;;;2.58;1.88;;;;;;;12.41;96.04;151799.34;10589798;28;20411;-75
2024/02/09 15:05:22;;;;;;;2.60;1.70;;;;;;;12.38;95.97;151791.59;10572605;28;20108;-74
2024/02/09 15:10:25;;;;;;;1.35;1.23;;;;;;;12.29;96.08;151768.31;10589092;28;20407;-76
2024/02/09 15:15:29;;;;;;;1.20;1.05;;;;;;;12.22;97.49;151750.19;10588354;28;20040;-74
2024/02/09 15:20:32;;;;;;;1.20;1.10;;;;;;;12.18;96.80;151739.91;10589432;28;20042;-75
2024/02/09 15:25:34;;;;;;;2.10;0.88;;;;;;;12.15;97.46;151733.41;10591465;28;20047;-76
2024/02/09 15:30:37;;;;;;;3.30;1.25;;;;;;;11.95;99.01;151681.69;10571152;28;20044;-76
2024/02/09 15:35:39;;;;;;;1.52;1.00;;;;;;;11.90;100.00;151670.06;10587876;28;20071;-77
2024/02/09 15:40:40;;;;;;;2.03;0.98;;;;;;;11.93;100.00;151676.53;10552330;28;20414;-76
2024/02/09 15:45:44;;;;;;;1.60;1.08;;;;;;;11.51;100.00;151571.84;10589093;28;20050;-76
2024/02/09 15:50:49;;;;;;;2.42;1.42;;;;;;;11.34;100.00;151527.91;10589511;28;20513;-75
2024/02/09 15:55:52;;;;;;;4.57;1.50;;;;;;;11.12;100.00;151472.34;10588640;28;20075;-75
2024/02/09 16:00:55;;;;;;;1.50;1.10;;;;;;;10.79;100.00;151389.66;10588359;28;20040;-75
2024/02/09 16:05:57;;;;;;;2.55;1.52;;;;;;;10.72;100.00;151371.63;10569375;28;20051;-75
2024/02/09 16:10:58;;;;;;;3.50;1.25;;;;;;;10.56;100.00;151331.56;10588746;28;20099;-76
2024/02/09 16:16:00;;;;;;;3.38;1.65;;;;;;;10.27;100.00;151256.66;10585976;28;20526;-76
2024/02/09 16:21:02;;;;;;;2.78;1.77;;;;;;;10.32;100.00;151269.63;10587344;28;20043;-75
2024/02/09 16:26:05;;;;;;;6.22;2.47;;;;;;;10.06;100.00;151203.75;10567491;28;20052;-76
2024/02/09 16:31:08;;;;;;;5.03;2.70;;;;;;;9.75;100.00;151126.31;10567295;28;20499;-76
2024/02/09 16:36:11;;;;;;;4.15;2.83;;;;;;;9.42;100.00;151042.41;10586594;28;20055;-77
2024/02/09 16:41:13;;;;;;;5.75;3.53;;;;;;;9.28;100.00;151006.31;10567779;28;20035;-75
2024/02/09 16:46:17;;;;;;;5.22;3.10;;;;;;;9.17;100.00;150977.94;10585926;28;20420;-75
2024/02/09 16:51:20;;;;;;;4.32;3.35;;;;;;;9.54;100.00;151073.38;10568213;28;20444;-75
2024/02/09 16:56:22;;;;;;;5.28;4.30;;;;;;;9.41;100.00;151038.56;10586484;28;20043;-75
2024/02/09 17:01:24;;;;;;;6.97;4.55;;;;;;;9.04;100.00;150945.72;10585753;28;20105;-76
2024/02/09 17:06:26;;;;;;;5.63;4.35;;;;;;;8.92;100.00;150916.03;10586670;28;20407;-75
2024/02/09 17:11:28;;;;;;;6.57;3.60;;;;;;;8.92;100.00;150916.03;10585354;28;20510;-75
2024/02/09 17:16:30;;;;;;;6.45;4.20;;;;;;;9.02;100.00;150940.53;10584446;28;20042;-75
2024/02/09 17:21:32;;;;;;;6.88;4.88;;;;;;;8.98;100.00;150930.19;10584848;28;20036;-75
2024/02/09 17:26:34;;;;;;;4.95;3.53;;;;;;;8.84;100.00;150895.38;10589113;28;20118;-77
2024/02/09 17:31:36;;;;;;;5.72;4.35;;;;;;;8.67;100.00;150851.53;10594614;28;20040;-75
2024/02/09 17:36:38;;;;;;;5.78;4.28;;;;;;;8.54;100.00;150819.31;10595108;28;20495;-76
2024/02/09 17:41:40;;;;;;;5.60;3.22;;;;;;;8.50;100.00;150810.31;10600667;28;20414;-78
2024/02/09 17:46:43;;;;;;;3.90;2.80;;;;;;;8.28;100.00;150754.84;10602227;28;20039;-78
2024/02/09 17:51:45;;;;;;;3.88;2.80;;;;;;;8.24;100.00;150743.25;10600917;28;20510;-77
2024/02/09 17:56:47;;;;;;;4.13;3.65;;;;;;;8.30;100.00;150759.97;10598659;28;20043;-77
2024/02/09 18:01:49;;;;;;;5.72;3.10;;;;;;;8.30;100.00;150759.97;10580954;28;20099;-79
2024/02/09 18:06:51;;;;;;;3.45;3.13;;;;;;;8.24;100.00;150743.25;10602921;28;20534;-78
2024/02/09 18:11:53;;;;;;;4.82;4.15;;;;;;;8.51;100.00;150812.88;10595504;28;20063;-77
2024/02/09 18:16:55;;;;;;;3.15;2.85;;;;;;;8.99;100.00;150934.09;10598859;28;20057;-78
2024/02/09 18:21:58;;;;;;;3.80;2.83;;;;;;;8.89;100.00;150907.00;10600881;28;20040;-77
2024/02/09 18:27:00;;;;;;;4.90;3.55;;;;;;;9.15;100.00;150972.78;10597917;28;20075;-78
2024/02/09 18:32:03;;;;;;;4.50;3.88;;;;;;;9.31;100.00;151014.06;10580292;28;20101;-77
2024/02/09 18:37:06;;;;;;;5.10;3.50;;;;;;;9.17;100.00;150979.25;10598383;28;20093;-78
2024/02/09 18:42:08;;;;;;;4.45;3.28;;;;;;;8.80;100.00;150886.34;10600225;28;20042;-79
2024/02/09 18:47:09;;;;;;;4.43;3.63;;;;;;;8.68;100.00;150854.16;10596345;28;20054;-78
2024/02/09 18:52:15;;;;;;;5.85;3.25;;;;;;;8.78;100.00;150879.94;10603551;28;20031;-77
2024/02/09 18:57:17;;;;;;;6.03;4.55;;;;;;;8.87;100.00;150901.84;10598031;28;20089;-78
2024/02/09 19:02:18;;;;;;;4.95;3.55;;;;;;;9.10;100.00;150962.44;10577125;28;20043;-78
2024/02/09 19:07:21;;;;;;;7.55;4.28;;;;;;;9.09;100.00;150959.88;10596430;28;20062;-78
2024/02/09 19:12:23;;;;;;;5.03;4.18;;;;;;;8.80;100.00;150885.06;10559694;28;20047;-78
2024/02/09 19:17:26;;;;;;;5.13;4.43;;;;;;;8.62;100.00;150838.66;10596709;28;20031;-77
2024/02/09 19:22:28;;;;;;;5.18;4.35;;;;;;;9.08;100.00;150957.31;10579446;28;20047;-79
2024/02/09 19:27:37;;;;;;;4.07;3.65;;;;;;;8.86;100.00;150900.56;10600307;28;20050;-80
2024/02/09 19:32:45;;;;;;;4.57;3.97;;;;;;;8.72;100.00;150864.44;10571805;28;20047;-80
2024/02/09 19:37:50;;;;;;;4.80;4.32;;;;;;;8.65;100.00;150846.41;10570482;28;20052;-80
2024/02/09 19:42:52;;;;;;;6.05;4.63;;;;;;;8.62;100.00;150838.66;10604540;28;20376;-79
2024/02/09 19:47:55;;;;;;;5.22;4.50;;;;;;;8.81;100.00;150888.97;10584750;28;20040;-79
2024/02/09 19:52:58;;;;;;;5.70;4.80;;;;;;;9.06;100.00;150950.84;10587021;28;20040;-80
2024/02/09 19:58:01;;;;;;;5.35;4.57;;;;;;;9.16;100.00;150976.63;10602272;28;20051;-81
2024/02/09 20:03:04;;;;;;;5.28;4.57;;;;;;;8.90;100.00;150909.56;10601782;28;20085;-81
2024/02/09 20:08:15;;;;;;;5.72;4.35;;;;;;;8.62;100.00;150838.66;10603621;28;20040;-81
2024/02/09 20:13:19;;;;;;;4.18;3.78;;;;;;;8.65;100.00;150847.69;10601507;28;20149;-80
2024/02/09 20:18:26;;;;;;;5.68;3.40;;;;;;;8.94;100.00;150921.22;10590627;28;20047;-81
2024/02/09 20:23:42;;;;;;;5.28;4.65;;;;;;;9.01;100.00;150937.94;10589711;28;20049;-80
2024/02/09 20:28:44;;;;;;;5.43;4.53;;;;;;;9.02;100.00;150940.53;10575195;28;20047;-80
2024/02/09 20:33:49;;;;;;;9.80;5.03;;;;;;;8.93;100.00;150917.31;10593886;28;20039;-78
2024/02/09 20:38:52;;;;;;;6.68;5.95;;;;;;;9.05;100.00;150949.56;10584280;28;20043;-80
2024/02/09 20:43:56;;;;;;;6.55;5.90;;;;;;;9.20;100.00;150986.94;10589075;28;20047;-81
2024/02/09 20:49:04;;;;;;;9.75;6.55;;;;;;;9.13;100.00;150968.91;10607515;28;20504;-81
2024/02/09 20:54:09;;;;;;;7.00;6.30;;;;;;;8.98;100.00;150930.19;10607788;28;20040;-81
2024/02/09 20:59:15;;;;;;;7.53;6.38;;;;;;;9.13;100.00;150968.91;10586963;28;20036;-79
2024/02/09 21:04:18;;;;;;;8.50;7.63;;;;;;;9.05;100.00;150948.28;10612388;28;20111;-80
2024/02/09 21:09:20;;;;;;;13.38;7.47;;;;;;;9.09;100.00;150959.88;10615313;28;20043;-81
2024/02/09 21:14:23;;;;;;;7.88;7.05;;;;;;;8.94;100.00;150921.22;10617428;28;20047;-81
2024/02/09 21:19:25;;;;;;;9.43;6.18;;;;;;;9.09;100.00;150959.88;10613665;28;20179;-81
2024/02/09 21:24:27;;;;;;;8.05;7.25;;;;;;;9.04;100.00;150945.72;10615867;28;20040;-79
2024/02/09 21:29:29;;;;;;;7.93;7.13;;;;;;;9.12;100.00;150965.03;10614650;28;20063;-81
2024/02/09 21:34:31;;;;;;;8.38;7.13;;;;;;;9.02;100.00;150941.81;10593769;28;20034;-80
2024/02/09 21:39:33;;;;;;;8.32;7.55;;;;;;;9.04;100.00;150947.00;10612951;28;20043;-81
2024/02/09 21:44:36;;;;;;;14.52;7.50;;;;;;;9.07;100.00;150953.41;10595178;28;20097;-80
2024/02/09 21:49:38;;;;;;;8.98;6.75;;;;;;;8.90;100.00;150910.88;10614561;28;20043;-79
2024/02/09 21:54:40;;;;;;;9.00;7.20;;;;;;;8.74;100.00;150870.91;10598361;28;20100;-80
2024/02/09 21:59:42;;;;;;;8.35;7.45;;;;;;;8.55;100.00;150821.94;10613539;28;20464;-80
2024/02/09 22:04:44;;;;;;;8.05;7.25;;;;;;;8.65;100.00;150847.69;10594023;28;20103;-81
2024/02/09 22:09:47;;;;;;;10.35;7.82;;;;;;;8.89;100.00;150907.00;10611882;28;20057;-80
2024/02/09 22:14:48;;;;;;;7.63;6.75;;;;;;;8.71;100.00;150863.16;10595762;28;20035;-80
2024/02/09 22:19:57;;;;;;;13.55;8.30;;;;;;;8.91;100.00;150913.47;10610028;28;20044;-81
2024/02/09 22:25:01;;;;;;;9.60;8.02;;;;;;;9.00;100.00;150935.38;10613987;28;20086;-80
2024/02/09 22:30:06;;;;;;;9.18;8.27;;;;;;;8.98;100.00;150930.19;10611394;28;20049;-79
2024/02/09 22:35:13;;;;;;;10.98;8.43;;;;;;;8.89;100.00;150908.28;10607415;28;20063;-79
2024/02/09 22:40:16;;;;;;;10.13;8.73;;;;;;;8.96;100.00;150926.34;10608739;28;20036;-79
2024/02/09 22:45:24;;;;;;;9.70;8.00;;;;;;;8.76;100.00;150876.03;10604436;28;20111;-78
2024/02/09 22:50:27;;;;;;;9.70;8.80;;;;;;;8.96;100.00;150926.34;10581654;28;20043;-79
2024/02/09 22:55:29;;;;;;;9.50;8.40;;;;;;;8.89;100.00;150908.28;10605597;28;20057;-79
2024/02/09 23:00:35;;;;;;;9.18;8.15;;;;;;;8.79;100.00;150883.78;10606724;28;20040;-79
2024/02/09 23:05:37;;;;;;;8.65;7.75;;;;;;;8.95;100.00;150923.78;10604118;28;20391;-79
2024/02/09 23:10:39;;;;;;;8.82;7.93;;;;;;;8.84;100.00;150895.38;10604300;28;20032;-79
2024/02/09 23:15:41;;;;;;;9.25;8.35;;;;;;;8.81;100.00;150888.97;10604290;28;20127;-79
2024/02/09 23:20:43;;;;;;;8.55;7.43;;;;;;;8.71;100.00;150861.88;10602465;28;20046;-79
2024/02/09 23:25:46;;;;;;;8.27;7.53;;;;;;;8.69;100.00;150856.72;10583972;28;20114;-80
2024/02/09 23:30:50;;;;;;;8.38;7.53;;;;;;;8.89;100.00;150908.28;10604223;28;20472;-80
2024/02/09 23:35:54;;;;;;;7.70;7.00;;;;;;;8.93;100.00;150917.31;10603295;28;20099;-79
2024/02/09 23:40:56;;;;;;;9.60;8.73;;;;;;;8.77;100.00;150878.66;10602742;28;20054;-80
2024/02/09 23:45:59;;;;;;;8.50;7.47;;;;;;;9.05;100.00;150949.56;10601044;28;20058;-79
2024/02/09 23:51:01;;;;;;;9.23;7.47;;;;;;;8.90;100.00;150909.56;10582421;28;20054;-78
2024/02/09 23:56:07;;;;;;;8.13;7.40;;;;;;;8.96;100.00;150926.34;10578551;28;20050;-80
